createdAt,value
2023-02-03T00:01:29.855Z,8.75
2023-02-03T00:03:57.919Z,9.02
2023-02-03T00:06:26.173Z,7.93
2023-02-03T00:08:56.361Z,7.53
2023-02-03T00:11:24.615Z,6.75
2023-02-03T00:13:52.663Z,7.07
2023-02-03T00:16:22.087Z,7.40
2023-02-03T00:18:50.192Z,7.55
2023-02-03T00:21:18.331Z,7.53
2023-02-03T00:23:46.466Z,7.75
2023-02-03T00:26:16.873Z,7.47
2023-02-03T00:28:45.613Z,8.38
2023-02-03T00:31:18.359Z,7.65
2023-02-03T00:33:48.086Z,7.35
2023-02-03T00:36:16.258Z,7.82
2023-02-03T00:38:44.315Z,6.97
2023-02-03T00:41:12.458Z,8.68
2023-02-03T00:43:40.604Z,7.35
2023-02-03T00:46:08.790Z,8.95
2023-02-03T00:48:36.827Z,7.88
2023-02-03T00:51:06.634Z,7.95
2023-02-03T00:53:34.975Z,8.88
2023-02-03T00:56:03.162Z,8.82
2023-02-03T00:58:31.277Z,8.27
2023-02-03T01:00:59.393Z,8.95
2023-02-03T01:03:27.526Z,10.98
2023-02-03T01:05:55.628Z,9.48
2023-02-03T01:08:25.298Z,9.23
2023-02-03T01:10:53.410Z,9.15
2023-02-03T01:13:21.500Z,8.27
2023-02-03T01:15:49.883Z,8.48
2023-02-03T01:18:17.947Z,8.85
2023-02-03T01:20:46.177Z,9.35
2023-02-03T01:23:14.269Z,8.60
2023-02-03T01:25:43.727Z,9.45
2023-02-03T01:28:11.949Z,9.80
2023-02-03T01:30:40.099Z,9.63
2023-02-03T01:33:08.284Z,9.18
2023-02-03T01:35:36.735Z,9.15
2023-02-03T01:38:04.772Z,9.48
2023-02-03T01:40:32.852Z,10.15
2023-02-03T01:43:02.285Z,12.07
2023-02-03T01:45:30.619Z,9.95
2023-02-03T01:48:01.290Z,9.55
2023-02-03T01:50:33.284Z,9.48
2023-02-03T01:53:05.064Z,9.18
2023-02-03T01:55:37.230Z,9.82
2023-02-03T01:58:12.712Z,10.45
2023-02-03T02:00:40.851Z,10.32
2023-02-03T02:03:10.450Z,9.82
2023-02-03T02:05:44.613Z,10.45
2023-02-03T02:08:15.120Z,10.68
2023-02-03T02:10:43.333Z,12.02
2023-02-03T02:13:14.235Z,10.95
2023-02-03T02:15:51.438Z,11.55
2023-02-03T02:18:42.052Z,10.93
2023-02-03T02:21:45.480Z,10.82
2023-02-03T02:24:33.454Z,11.15
2023-02-03T02:27:10.551Z,11.25
2023-02-03T02:30:04.445Z,11.98
2023-02-03T02:32:47.915Z,11.48
2023-02-03T02:35:24.768Z,11.02
2023-02-03T02:38:01.008Z,11.85
2023-02-03T02:40:36.887Z,11.93
2023-02-03T02:43:12.393Z,11.27
2023-02-03T02:45:48.342Z,10.15
2023-02-03T02:48:24.523Z,11.15
2023-02-03T02:50:56.717Z,10.07
2023-02-03T02:53:28.198Z,11.13
2023-02-03T02:55:58.588Z,10.45
2023-02-03T02:58:29.323Z,11.18
2023-02-03T03:00:57.501Z,11.30
2023-02-03T03:03:26.956Z,10.73
2023-02-03T03:05:59.255Z,10.57
2023-02-03T03:08:33.321Z,10.32
2023-02-03T03:11:03.106Z,10.20
2023-02-03T03:13:35.357Z,9.80
2023-02-03T03:16:07.837Z,10.50
2023-02-03T03:18:43.530Z,10.25
2023-02-03T03:21:16.761Z,10.00
2023-02-03T03:23:48.119Z,10.70
2023-02-03T03:26:23.397Z,10.13
2023-02-03T03:28:56.203Z,9.80
2023-02-03T03:31:24.409Z,10.18
2023-02-03T03:33:54.253Z,10.43
2023-02-03T03:36:28.227Z,10.65
2023-02-03T03:39:03.618Z,9.95
2023-02-03T03:41:42.280Z,11.25
2023-02-03T03:44:16.687Z,10.48
2023-02-03T03:46:51.123Z,11.07
2023-02-03T03:49:23.445Z,10.05
2023-02-03T03:51:56.581Z,10.90
2023-02-03T03:54:27.200Z,11.15
2023-02-03T03:57:00.307Z,11.65
2023-02-03T03:59:31.963Z,11.88
2023-02-03T04:02:04.662Z,12.48
2023-02-03T04:04:37.777Z,11.68
2023-02-03T04:07:06.004Z,12.70
2023-02-03T04:09:36.643Z,14.30
2023-02-03T04:12:06.333Z,15.30
2023-02-03T04:14:38.005Z,17.10
2023-02-03T04:17:06.867Z,13.77
2023-02-03T04:19:36.430Z,12.55
2023-02-03T04:22:04.515Z,11.90
2023-02-03T04:24:32.736Z,11.95
2023-02-03T04:27:00.782Z,11.75
2023-02-03T04:29:28.919Z,12.02
2023-02-03T04:31:57.127Z,12.10
2023-02-03T04:34:25.241Z,12.40
2023-02-03T04:36:54.638Z,11.43
2023-02-03T04:39:22.774Z,11.13
2023-02-03T04:41:50.855Z,10.55
2023-02-03T04:44:18.842Z,12.07
2023-02-03T04:46:47.005Z,12.90
2023-02-03T04:49:15.256Z,11.30
2023-02-03T04:51:44.304Z,12.05
2023-02-03T04:54:13.892Z,12.40
2023-02-03T04:56:42.176Z,10.55
2023-02-03T04:59:10.515Z,11.02
2023-02-03T05:01:38.715Z,10.88
2023-02-03T05:04:06.834Z,10.48
2023-02-03T05:06:35.356Z,10.60
2023-02-03T05:09:03.569Z,10.27
2023-02-03T05:11:33.086Z,11.43
2023-02-03T05:14:01.350Z,10.65
2023-02-03T05:16:29.575Z,10.73
2023-02-03T05:18:57.634Z,12.05
2023-02-03T05:21:25.741Z,11.63
2023-02-03T05:23:53.875Z,12.02
2023-02-03T05:26:21.951Z,14.50
2023-02-03T05:28:52.501Z,16.38
2023-02-03T05:31:21.713Z,14.73
2023-02-03T05:33:49.865Z,13.45
2023-02-03T05:36:17.949Z,12.45
2023-02-03T05:38:46.008Z,13.15
2023-02-03T05:41:31.590Z,13.02
2023-02-03T05:44:01.042Z,12.45
2023-02-03T05:46:29.258Z,12.80
2023-02-03T05:48:57.335Z,13.30
2023-02-03T05:51:25.445Z,12.82
2023-02-03T05:53:54.335Z,12.68
2023-02-03T05:56:22.495Z,13.00
2023-02-03T05:58:53.371Z,12.27
2023-02-03T06:01:23.061Z,13.32
2023-02-03T06:03:51.448Z,15.80
2023-02-03T06:06:19.836Z,13.90
2023-02-03T06:08:47.903Z,12.15
2023-02-03T06:11:16.082Z,12.00
2023-02-03T06:13:44.169Z,13.13
2023-02-03T06:16:12.231Z,13.30
2023-02-03T06:18:41.730Z,14.32
2023-02-03T06:21:09.976Z,13.43
2023-02-03T06:23:38.080Z,12.18
2023-02-03T06:26:06.486Z,12.93
2023-02-03T06:28:34.723Z,12.63
2023-02-03T06:31:03.021Z,12.50
2023-02-03T06:33:31.356Z,13.30
2023-02-03T06:36:01.093Z,13.88
2023-02-03T06:38:29.154Z,12.85
2023-02-03T06:40:57.262Z,12.30
2023-02-03T06:43:25.545Z,12.82
2023-02-03T06:45:54.060Z,12.40
2023-02-03T06:48:22.314Z,11.85
2023-02-03T06:50:50.429Z,13.00
2023-02-03T06:53:19.899Z,13.35
2023-02-03T06:55:48.980Z,18.50
2023-02-03T06:58:17.191Z,13.40
2023-02-03T07:00:45.459Z,15.85
2023-02-03T07:03:13.589Z,19.70
2023-02-03T07:05:41.727Z,20.77
2023-02-03T07:08:09.757Z,14.23
2023-02-03T07:10:39.200Z,22.42
2023-02-03T07:13:08.416Z,18.85
2023-02-03T07:15:36.789Z,14.55
2023-02-03T07:18:05.105Z,13.43
2023-02-03T07:20:34.210Z,12.35
2023-02-03T07:23:02.296Z,12.75
2023-02-03T07:25:30.417Z,11.88
2023-02-03T07:27:59.944Z,11.85
2023-02-03T07:30:28.253Z,12.30
2023-02-03T07:32:56.555Z,10.55
2023-02-03T07:35:25.545Z,10.77
2023-02-03T07:37:53.825Z,10.48
2023-02-03T07:40:23.921Z,11.93
2023-02-03T07:42:52.146Z,11.73
2023-02-03T07:45:22.279Z,11.80
2023-02-03T07:47:50.202Z,11.32
2023-02-03T07:50:18.850Z,9.77
2023-02-03T07:52:46.869Z,10.70
2023-02-03T07:55:14.935Z,10.10
2023-02-03T07:57:43.867Z,12.77
2023-02-03T08:00:14.189Z,13.90
2023-02-03T08:02:44.094Z,12.15
2023-02-03T08:05:13.257Z,11.68
2023-02-03T08:07:41.515Z,10.73
2023-02-03T08:10:13.221Z,10.63
2023-02-03T08:12:45.130Z,11.50
2023-02-03T08:15:17.466Z,9.13
2023-02-03T08:17:47.148Z,7.72
2023-02-03T08:20:15.419Z,7.85
2023-02-03T08:22:43.522Z,7.22
2023-02-03T08:25:12.136Z,10.45
2023-02-03T08:27:40.936Z,8.88
2023-02-03T08:30:13.287Z,8.95
2023-02-03T08:32:41.515Z,9.63
2023-02-03T08:35:11.613Z,8.20
2023-02-03T08:37:39.769Z,8.27
2023-02-03T08:40:08.907Z,8.57
2023-02-03T08:42:37.413Z,8.40
2023-02-03T08:45:06.040Z,8.63
2023-02-03T08:47:34.293Z,8.02
2023-02-03T08:50:02.432Z,8.63
2023-02-03T08:52:31.908Z,8.50
2023-02-03T08:55:00.084Z,8.13
2023-02-03T08:57:29.060Z,7.70
2023-02-03T08:59:57.192Z,7.07
2023-02-03T09:02:25.295Z,7.63
2023-02-03T09:04:53.606Z,8.07
2023-02-03T09:07:21.810Z,8.35
2023-02-03T09:09:51.355Z,7.90
2023-02-03T09:12:19.455Z,8.57
2023-02-03T09:14:47.587Z,7.28
2023-02-03T09:17:15.648Z,7.70
2023-02-03T09:19:43.783Z,7.63
2023-02-03T09:22:11.917Z,9.25
2023-02-03T09:24:40.181Z,7.72
2023-02-03T09:27:09.692Z,9.27
2023-02-03T09:29:37.929Z,8.18
2023-02-03T09:32:08.932Z,8.73
2023-02-03T09:34:37.187Z,8.35
2023-02-03T09:37:05.509Z,7.53
2023-02-03T09:39:33.566Z,6.47
2023-02-03T09:42:19.507Z,8.35
2023-02-03T09:44:53.616Z,8.18
2023-02-03T09:47:24.617Z,8.13
2023-02-03T09:49:55.214Z,7.57
2023-02-03T09:52:26.098Z,7.07
2023-02-03T09:54:58.108Z,6.85
2023-02-03T09:57:29.894Z,6.20
2023-02-03T10:00:00.855Z,7.28
2023-02-03T10:02:45.103Z,7.78
2023-02-03T10:05:21.754Z,7.43
2023-02-03T10:07:59.408Z,7.28
2023-02-03T10:10:32.947Z,7.30
2023-02-03T10:13:11.694Z,6.63
2023-02-03T10:16:13.316Z,6.82
2023-02-03T10:18:45.615Z,6.38
2023-02-03T10:21:18.012Z,7.22
2023-02-03T10:23:47.916Z,7.28
2023-02-03T10:26:18.874Z,7.85
2023-02-03T10:28:54.942Z,7.72
2023-02-03T10:31:27.654Z,6.35
2023-02-03T10:34:01.868Z,6.00
2023-02-03T10:36:42.991Z,5.60
2023-02-03T10:39:21.361Z,5.63
2023-02-03T10:41:49.749Z,6.68
2023-02-03T10:44:19.254Z,6.22
2023-02-03T10:46:47.413Z,5.55
2023-02-03T10:49:16.773Z,7.18
2023-02-03T10:51:50.957Z,5.95
2023-02-03T10:54:29.917Z,5.10
2023-02-03T10:57:04.067Z,5.80
2023-02-03T10:59:36.658Z,5.10
2023-02-03T11:02:10.419Z,5.78
2023-02-03T11:04:38.784Z,5.00
2023-02-03T11:07:08.724Z,5.35
2023-02-03T11:09:38.837Z,5.03
2023-02-03T11:12:09.806Z,3.90
2023-02-03T11:14:40.617Z,5.88
2023-02-03T11:17:11.093Z,3.22
2023-02-03T11:19:40.584Z,3.10
2023-02-03T11:22:08.860Z,2.95
2023-02-03T11:24:41.899Z,3.50
2023-02-03T11:27:14.842Z,3.35
2023-02-03T11:29:47.538Z,3.13
2023-02-03T11:32:21.450Z,3.92
2023-02-03T11:34:58.019Z,2.60
2023-02-03T11:37:29.597Z,3.97
2023-02-03T11:39:58.773Z,3.15
2023-02-03T11:42:26.750Z,3.35
2023-02-03T11:45:15.133Z,2.95
2023-02-03T11:47:47.715Z,2.72
2023-02-03T11:50:29.246Z,2.22
2023-02-03T11:53:20.903Z,2.55
2023-02-03T11:56:01.516Z,3.17
2023-02-03T11:59:03.800Z,2.35
2023-02-03T12:01:56.441Z,2.40
2023-02-03T12:04:49.401Z,2.90
2023-02-03T12:07:46.344Z,2.42
2023-02-03T12:10:29.938Z,2.75
2023-02-03T12:13:09.267Z,2.92
2023-02-03T12:15:54.005Z,2.90
2023-02-03T12:18:35.329Z,2.85
2023-02-03T12:21:19.187Z,5.47
2023-02-03T12:23:57.352Z,3.58
2023-02-03T12:26:29.984Z,3.33
2023-02-03T12:29:05.320Z,3.30
2023-02-03T12:31:39.892Z,2.90
2023-02-03T12:34:19.348Z,5.97
2023-02-03T12:36:53.549Z,6.68
2023-02-03T12:39:29.296Z,4.60
2023-02-03T12:42:02.373Z,3.10
2023-02-03T12:44:34.786Z,3.08
2023-02-03T12:47:07.609Z,3.10
2023-02-03T12:49:43.598Z,3.92
2023-02-03T12:52:20.098Z,4.43
2023-02-03T12:54:56.450Z,4.13
2023-02-03T12:57:30.595Z,9.27
2023-02-03T13:00:14.141Z,4.57
2023-02-03T13:02:52.326Z,9.85
2023-02-03T13:05:27.975Z,7.75
2023-02-03T13:08:02.773Z,3.85
2023-02-03T13:10:38.346Z,7.57
2023-02-03T13:13:09.258Z,5.85
2023-02-03T13:15:40.652Z,6.75
2023-02-03T13:18:20.493Z,11.00
2023-02-03T13:20:49.945Z,6.38
2023-02-03T13:23:18.516Z,9.30
2023-02-03T13:26:02.368Z,5.55
2023-02-03T13:28:43.389Z,6.28
2023-02-03T13:31:26.141Z,4.22
2023-02-03T13:34:18.533Z,4.68
2023-02-03T13:37:10.837Z,4.03
2023-02-03T13:39:52.827Z,4.35
2023-02-03T13:42:25.405Z,4.30
2023-02-03T13:44:57.795Z,4.40
2023-02-03T13:47:29.650Z,5.35
2023-02-03T13:50:02.886Z,4.40
2023-02-03T13:52:36.525Z,5.13
2023-02-03T13:55:06.026Z,6.18
2023-02-03T13:57:36.454Z,6.10
2023-02-03T14:00:07.185Z,5.18
2023-02-03T14:02:56.053Z,7.70
2023-02-03T14:05:42.927Z,5.53
2023-02-03T14:08:44.621Z,13.27
2023-02-03T14:11:42.949Z,11.20
2023-02-03T14:14:46.291Z,20.38
2023-02-03T14:17:58.554Z,16.55
2023-02-03T14:20:44.588Z,8.43
2023-02-03T14:23:20.279Z,8.85
2023-02-03T14:25:51.151Z,8.05
2023-02-03T14:28:24.876Z,13.75
2023-02-03T14:31:10.631Z,8.10
2023-02-03T14:34:05.693Z,17.20
2023-02-03T14:36:38.150Z,18.23
2023-02-03T14:39:36.510Z,12.23
2023-02-03T14:42:15.629Z,5.97
2023-02-03T14:44:52.993Z,6.93
2023-02-03T14:47:36.776Z,7.05
2023-02-03T14:50:23.041Z,8.45
2023-02-03T14:53:07.659Z,9.55
2023-02-03T14:55:46.520Z,9.63
2023-02-03T14:58:24.651Z,8.77
2023-02-03T15:00:55.162Z,8.23
2023-02-03T15:03:25.750Z,8.07
2023-02-03T15:05:56.491Z,8.85
2023-02-03T15:08:42.938Z,8.20
2023-02-03T15:11:28.944Z,7.60
2023-02-03T15:13:59.056Z,8.13
2023-02-03T15:16:28.832Z,8.73
2023-02-03T15:18:59.808Z,8.57
2023-02-03T15:21:28.974Z,8.15
2023-02-03T15:23:57.046Z,7.45
2023-02-03T15:26:27.092Z,7.57
2023-02-03T15:28:56.756Z,8.25
2023-02-03T15:31:32.319Z,8.10
2023-02-03T15:34:05.359Z,8.20
2023-02-03T15:36:44.602Z,7.50
2023-02-03T15:39:23.263Z,6.82
2023-02-03T15:41:55.974Z,8.13
2023-02-03T15:44:31.640Z,7.95
2023-02-03T15:47:03.785Z,7.20
2023-02-03T15:49:35.877Z,6.80
2023-02-03T15:52:09.517Z,7.07
2023-02-03T15:54:41.382Z,7.20
2023-02-03T15:57:15.932Z,7.30
2023-02-03T15:59:55.179Z,6.50
2023-02-03T16:02:30.623Z,7.30
2023-02-03T16:04:59.551Z,7.55
2023-02-03T16:07:30.377Z,7.70
2023-02-03T16:09:59.353Z,7.55
2023-02-03T16:12:29.032Z,7.05
2023-02-03T16:14:59.167Z,8.10
2023-02-03T16:17:31.366Z,7.45
2023-02-03T16:20:29.306Z,7.55
2023-02-03T16:23:06.979Z,7.35
2023-02-03T16:25:36.361Z,7.72
2023-02-03T16:28:32.626Z,7.25
2023-02-03T16:31:20.855Z,7.22
2023-02-03T16:34:08.943Z,7.40
2023-02-03T16:36:58.942Z,7.30
2023-02-03T16:39:45.929Z,6.32
2023-02-03T16:42:35.050Z,7.20
2023-02-03T16:45:20.632Z,6.90
2023-02-03T16:48:06.186Z,6.90
2023-02-03T16:50:53.091Z,7.13
2023-02-03T16:53:23.147Z,6.45
2023-02-03T16:55:52.893Z,6.10
2023-02-03T16:58:21.349Z,6.05
2023-02-03T17:00:52.993Z,5.35
2023-02-03T17:03:22.932Z,6.05
2023-02-03T17:05:53.633Z,5.70
2023-02-03T17:08:24.572Z,5.47
2023-02-03T17:10:53.259Z,5.13
2023-02-03T17:13:23.333Z,4.60
2023-02-03T17:15:53.711Z,4.40
2023-02-03T17:18:22.281Z,4.95
2023-02-03T17:20:50.296Z,5.53
2023-02-03T17:23:20.108Z,6.95
2023-02-03T17:25:50.466Z,9.13
2023-02-03T17:28:19.021Z,7.25
2023-02-03T17:30:47.092Z,5.30
2023-02-03T17:33:15.126Z,5.07
2023-02-03T17:35:45.174Z,5.90
2023-02-03T17:38:14.643Z,7.22
2023-02-03T17:54:38.293Z,6.10
2023-02-03T17:57:07.887Z,4.70
2023-02-03T17:59:37.810Z,3.67
2023-02-03T18:02:06.208Z,4.20
2023-02-03T18:04:35.049Z,3.72
2023-02-03T18:07:03.199Z,3.40
2023-02-03T18:09:31.758Z,6.20
2023-02-03T18:11:59.947Z,8.20
2023-02-03T18:14:30.756Z,7.65
2023-02-03T18:16:58.923Z,7.68
2023-02-03T18:19:27.175Z,7.85
2023-02-03T18:21:55.390Z,7.75
2023-02-03T18:24:27.931Z,7.63
2023-02-03T18:26:56.813Z,10.93
2023-02-03T18:29:26.228Z,8.40
2023-02-03T18:31:55.673Z,7.90
2023-02-03T18:34:23.902Z,8.88
2023-02-03T18:36:52.143Z,8.23
2023-02-03T18:39:20.253Z,8.32
2023-02-03T18:41:48.356Z,8.35
2023-02-03T18:44:16.464Z,8.15
2023-02-03T18:46:44.543Z,10.07
2023-02-03T18:49:14.546Z,9.32
2023-02-03T18:51:42.617Z,10.38
2023-02-03T18:54:11.315Z,9.93
2023-02-03T18:56:39.500Z,9.88
2023-02-03T18:59:09.760Z,8.90
2023-02-03T19:01:38.834Z,9.00
2023-02-03T19:04:07.908Z,10.80
2023-02-03T19:06:45.425Z,9.93
2023-02-03T19:09:16.117Z,9.38
2023-02-03T19:11:44.423Z,10.93
2023-02-03T19:14:14.223Z,11.00
2023-02-03T19:16:42.430Z,12.80
2023-02-03T19:19:10.778Z,12.05
2023-02-03T19:21:40.211Z,9.60
2023-02-03T19:24:08.616Z,11.93
2023-02-03T19:26:36.711Z,13.45
2023-02-03T19:29:04.877Z,10.82
2023-02-03T19:31:35.795Z,9.23
2023-02-03T19:34:04.052Z,7.82
2023-02-03T19:36:33.427Z,4.65
2023-02-03T19:39:02.881Z,3.47
2023-02-03T19:41:31.030Z,4.40
2023-02-03T19:43:59.116Z,3.85
2023-02-03T19:46:31.780Z,3.60
2023-02-03T19:48:59.920Z,4.10
2023-02-03T19:51:28.004Z,4.60
2023-02-03T19:53:56.150Z,4.93
2023-02-03T19:56:25.710Z,4.70
2023-02-03T19:58:53.887Z,5.65
2023-02-03T20:01:23.592Z,5.78
2023-02-03T20:03:52.341Z,5.25
2023-02-03T20:06:20.524Z,4.95
2023-02-03T20:08:48.710Z,5.13
2023-02-03T20:11:16.816Z,4.85
2023-02-03T20:13:46.301Z,4.82
2023-02-03T20:16:16.724Z,4.70
2023-02-03T20:18:45.102Z,5.00
2023-02-03T20:21:13.681Z,5.00
2023-02-03T20:23:41.926Z,4.95
2023-02-03T20:26:10.161Z,5.50
2023-02-03T20:28:38.314Z,4.68
2023-02-03T20:31:08.197Z,5.25
2023-02-03T20:33:36.617Z,6.22
2023-02-03T20:36:05.205Z,5.68
2023-02-03T20:38:33.344Z,5.03
2023-02-03T20:41:01.350Z,4.82
2023-02-03T20:43:29.599Z,4.72
2023-02-03T20:45:57.741Z,4.22
2023-02-03T20:48:27.667Z,4.93
2023-02-03T20:50:55.854Z,4.22
2023-02-03T20:53:26.145Z,4.68
2023-02-03T20:56:00.123Z,3.83
2023-02-03T20:58:31.043Z,3.90
2023-02-03T21:00:59.630Z,4.28
2023-02-03T21:03:46.626Z,3.88
2023-02-03T21:06:16.088Z,3.58
2023-02-03T21:08:45.026Z,3.40
2023-02-03T21:11:15.512Z,3.35
2023-02-03T21:13:45.588Z,3.30
2023-02-03T21:16:17.957Z,3.33
2023-02-03T21:18:50.445Z,2.80
2023-02-03T21:21:25.010Z,2.88
2023-02-03T21:23:54.752Z,3.10
2023-02-03T21:26:25.011Z,2.55
2023-02-03T21:28:54.952Z,2.80
2023-02-03T21:31:26.511Z,2.13
2023-02-03T21:33:57.353Z,2.60
2023-02-03T21:36:27.267Z,2.47
2023-02-03T21:38:57.462Z,2.20
2023-02-03T21:41:27.548Z,2.10
2023-02-03T21:43:57.683Z,3.40
2023-02-03T21:46:27.739Z,2.05
2023-02-03T21:49:00.855Z,2.80
2023-02-03T21:51:33.742Z,2.42
2023-02-03T21:54:03.685Z,2.30
2023-02-03T21:56:39.319Z,2.10
2023-02-03T21:59:16.819Z,2.10
2023-02-03T22:01:45.055Z,2.00
2023-02-03T22:04:15.022Z,2.08
2023-02-03T22:06:46.935Z,2.00
2023-02-03T22:09:16.353Z,1.90
2023-02-03T22:11:44.767Z,1.67
2023-02-03T22:14:14.225Z,1.70
2023-02-03T22:16:42.373Z,1.90
2023-02-03T22:19:10.789Z,1.98
2023-02-03T22:21:40.321Z,1.80
2023-02-03T22:24:08.595Z,1.80
2023-02-03T22:26:36.731Z,2.05
2023-02-03T22:29:05.756Z,1.95
2023-02-03T22:31:34.022Z,1.70
2023-02-03T22:34:02.258Z,1.73
2023-02-03T22:36:30.342Z,1.73
2023-02-03T22:38:59.858Z,2.00
2023-02-03T22:41:28.005Z,1.77
2023-02-03T22:43:56.433Z,1.70
2023-02-03T22:46:24.510Z,2.10
2023-02-03T22:48:52.710Z,2.20
2023-02-03T22:51:20.778Z,2.30
2023-02-03T22:53:49.096Z,2.60
2023-02-03T22:56:18.571Z,2.67
2023-02-03T22:58:46.618Z,2.35
2023-02-03T23:01:14.702Z,2.20
2023-02-03T23:03:42.821Z,2.63
2023-02-03T23:06:11.552Z,4.65
2023-02-03T23:08:39.876Z,2.40
2023-02-03T23:11:07.953Z,2.90
2023-02-03T23:13:37.481Z,3.40
2023-02-03T23:16:06.341Z,3.28
2023-02-03T23:18:34.444Z,2.20
2023-02-03T23:21:02.571Z,4.57
2023-02-03T23:23:30.750Z,2.85
2023-02-03T23:25:58.976Z,2.72
2023-02-03T23:28:27.033Z,2.47
2023-02-03T23:30:56.993Z,2.92
2023-02-03T23:33:25.278Z,2.90
2023-02-03T23:35:53.015Z,2.63
2023-02-03T23:38:21.149Z,2.25
2023-02-03T23:40:49.354Z,1.70
2023-02-03T23:43:17.455Z,1.55
2023-02-03T23:45:45.471Z,1.90
2023-02-03T23:48:17.465Z,1.42
2023-02-03T23:50:45.530Z,1.30
2023-02-03T23:53:13.570Z,2.53
2023-02-03T23:55:41.581Z,1.55
2023-02-03T23:58:10.029Z,1.58
